createdAt,value
2023-04-26T00:00:29.206Z,10.63
2023-04-26T00:02:57.460Z,10.60
2023-04-26T00:05:27.228Z,10.59
2023-04-26T00:07:56.865Z,10.52
2023-04-26T00:10:24.952Z,10.51
2023-04-26T00:12:53.140Z,10.51
2023-04-26T00:15:21.191Z,10.58
2023-04-26T00:17:49.719Z,10.65
2023-04-26T00:20:19.470Z,10.57
2023-04-26T00:22:47.707Z,10.54
2023-04-26T00:25:18.395Z,10.50
2023-04-26T00:27:46.523Z,10.43
2023-04-26T00:30:15.724Z,10.44
2023-04-26T00:32:44.098Z,10.38
2023-04-26T00:35:12.262Z,10.38
2023-04-26T00:37:40.356Z,10.42
2023-04-26T00:40:10.727Z,10.34
2023-04-26T00:42:41.285Z,10.37
2023-04-26T00:45:10.217Z,10.34
2023-04-26T00:47:38.921Z,10.35
2023-04-26T00:50:08.800Z,10.27
2023-04-26T00:52:37.084Z,10.27
2023-04-26T00:55:05.733Z,10.25
2023-04-26T00:57:34.550Z,10.25
2023-04-26T01:00:12.689Z,10.22
2023-04-26T01:02:41.626Z,10.23
2023-04-26T01:05:10.935Z,10.19
2023-04-26T01:07:39.717Z,10.19
2023-04-26T01:10:09.537Z,10.17
2023-04-26T01:12:39.256Z,10.14
2023-04-26T01:15:11.550Z,10.14
2023-04-26T01:17:40.509Z,10.12
2023-04-26T01:20:10.487Z,10.12
2023-04-26T01:22:40.434Z,10.11
2023-04-26T01:25:12.781Z,10.09
2023-04-26T01:27:41.834Z,10.02
2023-04-26T01:30:11.516Z,9.98
2023-04-26T01:32:39.988Z,9.91
2023-04-26T01:35:08.553Z,9.94
2023-04-26T01:37:36.939Z,9.97
2023-04-26T01:40:08.115Z,9.94
2023-04-26T01:42:38.766Z,9.90
2023-04-26T01:45:08.439Z,9.84
2023-04-26T01:47:55.252Z,9.81
2023-04-26T01:50:24.639Z,9.82
2023-04-26T01:52:52.686Z,9.81
2023-04-26T01:55:22.116Z,9.80
2023-04-26T01:57:50.221Z,9.79
2023-04-26T02:00:18.856Z,9.75
2023-04-26T02:02:50.412Z,9.77
2023-04-26T02:05:18.802Z,9.72
2023-04-26T02:07:46.938Z,9.67
2023-04-26T02:10:15.250Z,9.66
2023-04-26T02:12:44.932Z,9.66
2023-04-26T02:15:13.166Z,9.64
2023-04-26T02:17:41.871Z,9.61
2023-04-26T02:20:11.484Z,9.62
2023-04-26T02:22:39.685Z,9.61
2023-04-26T02:25:08.556Z,9.60
2023-04-26T02:27:36.644Z,9.60
2023-04-26T02:30:07.741Z,9.57
2023-04-26T02:32:36.453Z,9.51
2023-04-26T02:35:05.200Z,9.48
2023-04-26T02:37:33.853Z,9.48
2023-04-26T02:40:02.163Z,9.44
2023-04-26T02:42:30.437Z,9.43
2023-04-26T02:44:58.889Z,9.46
2023-04-26T02:47:28.542Z,9.42
2023-04-26T02:49:56.570Z,9.40
2023-04-26T02:52:24.624Z,9.36
2023-04-26T02:54:52.752Z,9.38
2023-04-26T02:57:20.940Z,9.36
2023-04-26T02:59:49.011Z,9.33
2023-04-26T03:02:17.679Z,9.31
2023-04-26T03:04:47.814Z,9.35
2023-04-26T03:07:16.353Z,9.31
2023-04-26T03:09:44.542Z,9.30
2023-04-26T03:12:13.348Z,9.27
2023-04-26T03:14:41.526Z,9.26
2023-04-26T03:17:09.502Z,9.27
2023-04-26T03:19:37.656Z,9.28
2023-04-26T03:22:07.875Z,9.26
2023-04-26T03:24:36.071Z,9.28
2023-04-26T03:27:04.195Z,9.29
2023-04-26T03:29:32.938Z,9.29
2023-04-26T03:32:01.966Z,9.30
2023-04-26T03:34:30.879Z,9.30
2023-04-26T03:36:59.119Z,9.36
2023-04-26T03:39:28.826Z,9.38
2023-04-26T03:41:56.805Z,9.35
2023-04-26T03:44:24.909Z,9.35
2023-04-26T03:46:53.778Z,9.34
2023-04-26T03:49:22.409Z,9.34
2023-04-26T03:51:51.105Z,9.34
2023-04-26T03:54:19.296Z,9.30
2023-04-26T03:56:49.050Z,9.32
2023-04-26T03:59:18.042Z,9.32
2023-04-26T04:01:46.051Z,9.31
2023-04-26T04:04:14.146Z,9.33
2023-04-26T04:06:43.398Z,9.33
2023-04-26T04:09:11.953Z,9.30
2023-04-26T04:11:40.039Z,9.30
2023-04-26T04:14:09.716Z,9.33
2023-04-26T04:16:38.124Z,9.33
2023-04-26T04:19:06.286Z,9.39
2023-04-26T04:21:37.000Z,9.39
2023-04-26T04:24:05.880Z,9.39
2023-04-26T04:26:34.251Z,9.41
2023-04-26T04:29:08.819Z,9.43
2023-04-26T04:31:40.260Z,9.42
2023-04-26T04:34:10.000Z,9.43
2023-04-26T04:36:40.665Z,9.47
2023-04-26T04:39:13.692Z,9.49
2023-04-26T04:41:47.667Z,9.58
2023-04-26T04:44:17.096Z,9.68
2023-04-26T04:46:47.140Z,9.73
2023-04-26T04:49:16.086Z,9.76
2023-04-26T04:51:44.900Z,9.81
2023-04-26T04:54:14.366Z,9.82
2023-04-26T04:56:42.982Z,9.88
2023-04-26T04:59:12.689Z,9.85
2023-04-26T05:01:40.886Z,9.77
2023-04-26T05:04:17.257Z,9.73
2023-04-26T05:06:46.439Z,9.72
2023-04-26T05:09:14.630Z,9.72
2023-04-26T05:11:43.038Z,9.73
2023-04-26T05:14:12.898Z,9.75
2023-04-26T05:16:41.493Z,9.75
2023-04-26T05:19:10.589Z,9.78
2023-04-26T05:21:40.437Z,9.79
2023-04-26T05:24:08.918Z,9.75
2023-04-26T05:26:37.961Z,9.76
2023-04-26T05:29:33.257Z,9.74
2023-04-26T05:32:53.240Z,9.78
2023-04-26T05:35:36.231Z,9.82
2023-04-26T05:38:05.986Z,9.81
2023-04-26T05:40:35.643Z,9.87
2023-04-26T05:43:04.174Z,9.92
2023-04-26T05:45:32.839Z,9.94
2023-04-26T05:48:02.336Z,10.04
2023-04-26T05:50:31.196Z,10.15
2023-04-26T05:52:59.551Z,10.17
2023-04-26T05:55:29.152Z,10.25
2023-04-26T05:57:57.570Z,10.29
2023-04-26T06:00:26.908Z,10.33
2023-04-26T06:02:56.054Z,10.42
2023-04-26T06:05:24.644Z,10.50
2023-04-26T06:07:53.322Z,10.59
2023-04-26T06:10:22.308Z,10.68
2023-04-26T06:12:52.510Z,10.72
2023-04-26T06:15:22.188Z,10.82
2023-04-26T06:17:50.261Z,10.92
2023-04-26T06:20:18.427Z,11.10
2023-04-26T06:22:46.754Z,11.36
2023-04-26T06:25:15.135Z,11.65
2023-04-26T06:27:43.490Z,11.94
2023-04-26T06:30:13.959Z,12.03
2023-04-26T06:32:46.253Z,12.19
2023-04-26T06:35:15.701Z,12.57
2023-04-26T06:37:44.227Z,12.99
2023-04-26T06:40:14.128Z,13.32
2023-04-26T06:42:43.443Z,13.70
2023-04-26T06:45:41.500Z,13.61
2023-04-26T06:48:13.199Z,13.96
2023-04-26T06:50:41.588Z,14.21
2023-04-26T06:53:09.875Z,14.57
2023-04-26T06:55:38.904Z,14.95
2023-04-26T06:58:07.438Z,15.09
2023-04-26T07:00:35.916Z,15.08
2023-04-26T07:03:06.019Z,15.00
2023-04-26T07:05:34.151Z,14.96
2023-04-26T07:08:02.180Z,14.94
2023-04-26T07:10:30.547Z,14.75
2023-04-26T07:12:59.009Z,14.58
2023-04-26T07:15:28.361Z,14.45
2023-04-26T07:17:56.701Z,14.32
2023-04-26T07:20:26.586Z,14.19
2023-04-26T07:22:55.059Z,14.10
2023-04-26T07:25:23.037Z,14.04
2023-04-26T07:27:52.423Z,14.13
2023-04-26T07:30:20.393Z,14.16
2023-04-26T07:32:48.826Z,14.32
2023-04-26T07:35:17.458Z,14.37
2023-04-26T07:37:46.956Z,14.38
2023-04-26T07:40:15.453Z,14.27
2023-04-26T07:42:43.606Z,13.93
2023-04-26T07:45:12.927Z,13.79
2023-04-26T07:47:41.039Z,13.76
2023-04-26T07:50:11.360Z,13.71
2023-04-26T07:52:39.771Z,13.86
2023-04-26T07:55:11.232Z,14.09
2023-04-26T07:57:39.834Z,14.42
2023-04-26T08:00:09.855Z,14.71
2023-04-26T08:02:45.080Z,14.79
2023-04-26T08:05:14.506Z,14.77
2023-04-26T08:07:43.356Z,14.79
2023-04-26T08:10:13.230Z,14.65
2023-04-26T08:12:41.269Z,14.65
2023-04-26T08:15:10.312Z,14.86
2023-04-26T08:17:38.981Z,14.95
2023-04-26T08:20:09.921Z,14.98
2023-04-26T08:22:38.146Z,15.20
2023-04-26T08:25:07.080Z,15.12
2023-04-26T08:27:37.143Z,15.36
2023-04-26T08:30:06.573Z,15.61
2023-04-26T08:32:35.461Z,15.61
2023-04-26T08:35:03.808Z,15.87
2023-04-26T08:37:31.867Z,16.17
2023-04-26T08:40:00.505Z,16.47
2023-04-26T08:42:29.957Z,16.87
2023-04-26T08:45:03.671Z,17.06
2023-04-26T08:47:42.271Z,17.40
2023-04-26T08:50:14.796Z,17.51
2023-04-26T08:52:44.706Z,17.46
2023-04-26T08:55:14.549Z,17.29
2023-04-26T08:57:44.585Z,17.18
2023-04-26T09:00:16.318Z,17.06
2023-04-26T09:02:49.283Z,17.34
2023-04-26T09:05:23.605Z,17.24
2023-04-26T09:07:53.426Z,16.70
2023-04-26T09:10:23.335Z,16.26
2023-04-26T09:12:53.812Z,15.83
2023-04-26T09:15:24.834Z,15.70
2023-04-26T09:17:53.638Z,15.51
2023-04-26T09:20:25.983Z,15.25
2023-04-26T09:22:56.172Z,15.10
2023-04-26T09:25:30.663Z,15.13
2023-04-26T09:28:01.110Z,14.91
2023-04-26T09:30:32.244Z,14.77
2023-04-26T09:33:04.946Z,14.65
2023-04-26T09:35:35.976Z,14.67
2023-04-26T09:38:10.986Z,14.44
2023-04-26T09:40:43.617Z,14.34
2023-04-26T09:43:13.343Z,14.28
2023-04-26T09:45:49.655Z,14.33
2023-04-26T09:48:22.846Z,14.34
2023-04-26T09:50:54.212Z,14.39
2023-04-26T09:53:31.384Z,14.76
2023-04-26T09:56:08.591Z,15.28
2023-04-26T09:58:41.943Z,15.68
2023-04-26T10:01:12.847Z,16.06
2023-04-26T10:03:43.120Z,16.28
2023-04-26T10:06:11.511Z,16.38
2023-04-26T10:08:40.613Z,16.26
2023-04-26T10:11:10.546Z,16.05
2023-04-26T10:13:39.644Z,15.98
2023-04-26T10:16:09.778Z,16.07
2023-04-26T10:18:43.564Z,16.18
2023-04-26T10:21:17.819Z,16.28
2023-04-26T10:23:47.196Z,16.47
2023-04-26T10:26:51.934Z,16.47
2023-04-26T10:29:21.300Z,16.62
2023-04-26T10:32:16.559Z,16.93
2023-04-26T10:34:46.842Z,17.38
2023-04-26T10:37:16.437Z,17.82
2023-04-26T10:39:45.929Z,18.22
2023-04-26T10:42:24.135Z,18.64
2023-04-26T10:44:53.653Z,18.89
2023-04-26T10:47:24.996Z,18.92
2023-04-26T10:50:05.682Z,18.89
2023-04-26T10:52:34.871Z,18.99
2023-04-26T10:55:03.683Z,19.23
2023-04-26T10:57:52.797Z,19.61
2023-04-26T11:00:32.814Z,19.85
2023-04-26T11:03:12.964Z,19.79
2023-04-26T11:05:52.002Z,20.04
2023-04-26T11:08:22.059Z,19.90
2023-04-26T11:10:59.049Z,19.47
2023-04-26T11:13:27.385Z,18.82
2023-04-26T11:16:03.266Z,18.75
2023-04-26T11:18:32.468Z,18.61
2023-04-26T11:21:02.714Z,18.55
2023-04-26T11:23:32.808Z,18.44
2023-04-26T11:26:02.918Z,18.26
2023-04-26T11:28:33.916Z,17.96
2023-04-26T11:31:02.953Z,18.25
2023-04-26T11:33:31.495Z,18.42
2023-04-26T11:36:01.880Z,18.28
2023-04-26T11:38:30.486Z,18.27
2023-04-26T11:41:00.542Z,18.23
2023-04-26T11:43:36.901Z,18.17
2023-04-26T11:46:07.027Z,18.09
2023-04-26T11:48:37.449Z,17.93
2023-04-26T11:51:09.412Z,17.84
2023-04-26T11:53:38.967Z,17.74
2023-04-26T11:56:16.143Z,17.59
2023-04-26T11:58:46.583Z,17.69
2023-04-26T12:01:21.979Z,17.97
2023-04-26T12:03:53.011Z,18.31
2023-04-26T12:06:30.635Z,18.58
2023-04-26T12:08:58.686Z,18.63
2023-04-26T12:11:27.636Z,18.61
2023-04-26T12:13:56.813Z,18.67
2023-04-26T12:16:26.646Z,18.50
2023-04-26T12:18:56.763Z,18.32
2023-04-26T12:21:30.277Z,18.23
2023-04-26T12:23:59.263Z,18.25
2023-04-26T12:26:44.558Z,18.08
2023-04-26T12:29:12.741Z,17.92
2023-04-26T12:31:41.824Z,17.65
2023-04-26T12:34:10.419Z,17.49
2023-04-26T12:36:43.284Z,17.37
2023-04-26T12:39:13.806Z,17.44
2023-04-26T12:41:42.345Z,17.52
2023-04-26T12:44:11.717Z,17.73
2023-04-26T12:46:40.784Z,17.94
2023-04-26T12:49:09.153Z,18.09
2023-04-26T12:51:37.385Z,18.08
2023-04-26T12:54:07.176Z,18.11
2023-04-26T12:56:37.944Z,18.02
2023-04-26T12:59:06.768Z,17.91
2023-04-26T13:01:34.889Z,17.93
2023-04-26T13:04:05.692Z,18.14
2023-04-26T13:06:34.482Z,18.34
2023-04-26T13:09:02.915Z,18.56
2023-04-26T13:11:32.513Z,18.80
2023-04-26T13:14:02.114Z,18.91
2023-04-26T13:16:30.417Z,18.94
2023-04-26T13:18:58.984Z,18.77
2023-04-26T13:21:27.178Z,18.70
2023-04-26T13:23:55.455Z,18.58
2023-04-26T13:26:24.870Z,18.37
2023-04-26T13:28:55.540Z,18.34
2023-04-26T13:31:23.742Z,18.20
2023-04-26T13:33:52.272Z,18.26
2023-04-26T13:36:20.240Z,18.24
2023-04-26T13:38:48.765Z,18.08
2023-04-26T13:41:17.101Z,18.01
2023-04-26T13:43:45.145Z,17.94
2023-04-26T13:46:14.672Z,17.96
2023-04-26T13:48:43.196Z,18.06
2023-04-26T13:51:11.736Z,18.15
2023-04-26T13:53:40.309Z,18.28
2023-04-26T13:56:09.534Z,18.37
2023-04-26T13:58:37.497Z,18.44
2023-04-26T14:01:05.799Z,18.51
2023-04-26T14:03:35.838Z,18.55
2023-04-26T14:06:04.132Z,18.53
2023-04-26T14:08:32.421Z,18.42
2023-04-26T14:11:00.941Z,18.33
2023-04-26T14:13:29.348Z,18.32
2023-04-26T14:15:57.652Z,18.42
2023-04-26T14:18:26.150Z,18.58
2023-04-26T14:20:55.844Z,18.66
2023-04-26T14:23:23.846Z,18.67
2023-04-26T14:25:53.289Z,18.58
2023-04-26T14:28:21.521Z,18.56
2023-04-26T14:30:49.949Z,18.49
2023-04-26T14:33:18.069Z,18.42
2023-04-26T14:35:46.406Z,18.35
2023-04-26T14:38:16.137Z,18.26
2023-04-26T14:40:45.086Z,18.49
2023-04-26T14:43:13.400Z,18.82
2023-04-26T14:45:45.065Z,19.19
2023-04-26T14:48:13.405Z,19.57
2023-04-26T14:50:41.717Z,19.74
2023-04-26T14:53:10.767Z,19.80
2023-04-26T14:55:41.554Z,19.88
2023-04-26T14:58:09.618Z,19.84
2023-04-26T15:00:39.005Z,19.88
2023-04-26T15:03:07.907Z,19.89
2023-04-26T15:05:36.604Z,19.85
2023-04-26T15:08:06.523Z,19.75
2023-04-26T15:10:34.873Z,19.48
2023-04-26T15:13:04.476Z,19.57
2023-04-26T15:15:32.666Z,19.72
2023-04-26T15:18:01.867Z,19.87
2023-04-26T15:20:30.036Z,19.66
2023-04-26T15:22:58.283Z,19.34
2023-04-26T15:25:27.283Z,19.07
2023-04-26T15:27:55.347Z,18.78
2023-04-26T15:30:25.041Z,18.43
2023-04-26T15:32:53.519Z,18.26
2023-04-26T15:35:22.095Z,18.04
2023-04-26T15:37:51.202Z,17.92
2023-04-26T15:40:19.595Z,17.75
2023-04-26T15:42:48.911Z,17.62
2023-04-26T15:45:17.433Z,17.61
2023-04-26T15:47:48.228Z,17.57
2023-04-26T15:50:16.407Z,17.48
2023-04-26T15:52:44.763Z,17.48
2023-04-26T15:55:13.346Z,17.42
2023-04-26T15:57:43.173Z,17.30
2023-04-26T16:00:14.225Z,17.25
2023-04-26T16:02:44.716Z,17.26
2023-04-26T16:05:14.830Z,17.23
2023-04-26T16:07:43.152Z,17.13
2023-04-26T16:10:12.376Z,17.00
2023-04-26T16:12:41.908Z,16.86
2023-04-26T16:15:11.202Z,16.78
2023-04-26T16:17:40.297Z,16.74
2023-04-26T16:20:10.299Z,16.71
2023-04-26T16:22:40.083Z,16.57
2023-04-26T16:25:09.585Z,16.53
2023-04-26T16:27:37.744Z,16.52
2023-04-26T16:30:06.924Z,16.43
2023-04-26T16:32:35.135Z,16.39
2023-04-26T16:35:03.561Z,16.38
2023-04-26T16:37:32.237Z,16.31
2023-04-26T16:40:04.947Z,16.29
2023-04-26T16:42:32.971Z,16.24
2023-04-26T16:45:01.093Z,16.17
2023-04-26T16:47:29.688Z,16.09
2023-04-26T16:49:58.371Z,16.04
2023-04-26T16:52:26.588Z,16.01
2023-04-26T16:54:55.058Z,15.95
2023-04-26T16:57:25.227Z,15.85
2023-04-26T16:59:53.595Z,15.78
2023-04-26T17:02:22.205Z,15.75
2023-04-26T17:04:51.215Z,15.72
2023-04-26T17:07:19.621Z,15.66
2023-04-26T17:09:48.031Z,15.67
2023-04-26T17:12:16.553Z,15.63
2023-04-26T17:14:47.888Z,15.57
2023-04-26T17:17:16.182Z,15.49
2023-04-26T17:19:44.614Z,15.46
2023-04-26T17:22:13.336Z,15.49
2023-04-26T17:24:41.489Z,15.47
2023-04-26T17:27:09.636Z,15.43
2023-04-26T17:29:37.902Z,15.39
2023-04-26T17:32:08.010Z,15.35
2023-04-26T17:34:38.820Z,15.27
2023-04-26T17:37:07.190Z,15.22
2023-04-26T17:39:36.698Z,15.18
2023-04-26T17:42:05.280Z,15.13
2023-04-26T17:44:33.337Z,15.06
2023-04-26T17:47:01.572Z,14.98
2023-04-26T17:49:32.036Z,14.90
2023-04-26T17:52:00.177Z,14.89
2023-04-26T17:54:28.633Z,14.83
2023-04-26T17:56:59.097Z,14.79
2023-04-26T17:59:27.352Z,14.79
2023-04-26T18:01:55.816Z,14.72
2023-04-26T18:04:24.511Z,14.69
2023-04-26T18:06:54.744Z,14.62
2023-04-26T18:09:22.958Z,14.56
2023-04-26T18:11:51.626Z,14.48
2023-04-26T18:14:19.992Z,14.46
2023-04-26T18:16:48.473Z,14.41
2023-04-26T18:19:16.577Z,14.36
2023-04-26T18:21:44.714Z,14.28
2023-04-26T18:24:14.309Z,14.21
2023-04-26T18:26:42.285Z,14.18
2023-04-26T18:29:10.520Z,14.13
2023-04-26T18:31:39.085Z,14.11
2023-04-26T18:34:07.347Z,14.10
2023-04-26T18:36:36.032Z,14.06
2023-04-26T18:39:04.741Z,14.03
2023-04-26T18:41:34.418Z,13.98
2023-04-26T18:44:02.874Z,13.88
2023-04-26T18:46:31.083Z,13.80
2023-04-26T18:48:59.213Z,13.75
2023-04-26T18:51:27.143Z,13.73
2023-04-26T18:53:55.379Z,13.65
2023-04-26T18:56:23.996Z,13.61
2023-04-26T18:58:53.616Z,13.61
2023-04-26T19:01:21.840Z,13.54
2023-04-26T19:03:50.306Z,13.47
2023-04-26T19:06:18.591Z,13.42
2023-04-26T19:08:48.006Z,13.38
2023-04-26T19:11:16.656Z,13.33
2023-04-26T19:13:44.791Z,13.30
2023-04-26T19:16:14.517Z,13.26
2023-04-26T19:18:44.435Z,13.17
2023-04-26T19:21:12.657Z,13.08
2023-04-26T19:23:41.040Z,13.04
2023-04-26T19:26:13.472Z,13.03
2023-04-26T19:28:42.380Z,12.96
2023-04-26T19:31:11.302Z,12.90
2023-04-26T19:33:41.163Z,12.81
2023-04-26T19:36:10.567Z,12.74
2023-04-26T19:38:38.689Z,12.69
2023-04-26T19:41:07.198Z,12.62
2023-04-26T19:43:35.492Z,12.60
2023-04-26T19:46:12.348Z,12.56
2023-04-26T19:48:42.542Z,12.51
2023-04-26T19:51:16.463Z,12.48
2023-04-26T19:53:44.821Z,12.46
2023-04-26T19:56:13.102Z,12.41
2023-04-26T19:58:41.838Z,12.37
2023-04-26T20:01:10.246Z,12.36
2023-04-26T20:03:39.293Z,12.41
2023-04-26T20:06:11.635Z,12.34
2023-04-26T20:08:39.961Z,12.28
2023-04-26T20:11:14.691Z,12.23
2023-04-26T20:13:43.346Z,12.22
2023-04-26T20:16:12.306Z,12.16
2023-04-26T20:18:40.660Z,12.15
2023-04-26T20:21:10.468Z,12.05
2023-04-26T20:23:38.751Z,11.96
2023-04-26T20:26:06.943Z,12.00
2023-04-26T20:28:35.083Z,12.10
2023-04-26T20:31:03.156Z,12.02
2023-04-26T20:33:32.330Z,11.97
2023-04-26T20:36:00.605Z,12.03
2023-04-26T20:38:30.683Z,12.07
2023-04-26T20:40:58.833Z,12.07
2023-04-26T20:43:27.017Z,12.13
2023-04-26T20:45:55.366Z,12.18
2023-04-26T20:48:24.379Z,12.18
2023-04-26T20:50:55.091Z,12.18
2023-04-26T20:53:23.220Z,12.16
2023-04-26T20:55:54.171Z,12.04
2023-04-26T20:58:22.583Z,12.05
2023-04-26T21:00:51.803Z,12.08
2023-04-26T21:03:20.526Z,11.96
2023-04-26T21:05:49.374Z,11.95
2023-04-26T21:08:17.541Z,11.95
2023-04-26T21:10:46.164Z,11.98
2023-04-26T21:13:15.818Z,11.91
2023-04-26T21:15:43.865Z,11.84
2023-04-26T21:18:12.249Z,11.80
2023-04-26T21:20:40.313Z,11.79
2023-04-26T21:23:08.517Z,11.81
2023-04-26T21:25:36.894Z,11.81
2023-04-26T21:28:05.420Z,11.72
2023-04-26T21:30:35.231Z,11.63
2023-04-26T21:33:03.672Z,11.43
2023-04-26T21:35:31.944Z,11.25
2023-04-26T21:38:00.242Z,11.28
2023-04-26T21:40:28.340Z,11.42
2023-04-26T21:43:04.892Z,11.51
2023-04-26T21:45:35.259Z,11.53
2023-04-26T21:48:03.770Z,11.55
2023-04-26T21:50:31.960Z,11.48
2023-04-26T21:53:00.057Z,11.39
2023-04-26T21:55:28.190Z,11.25
2023-04-26T21:57:56.528Z,11.33
2023-04-26T22:00:27.165Z,11.25
2023-04-26T22:02:57.515Z,11.26
2023-04-26T22:05:25.982Z,11.17
2023-04-26T22:07:54.588Z,11.14
2023-04-26T22:10:22.651Z,11.11
2023-04-26T22:12:51.095Z,11.20
2023-04-26T22:15:19.163Z,11.18
2023-04-26T22:17:47.335Z,11.14
2023-04-26T22:20:17.002Z,11.21
2023-04-26T22:22:45.117Z,11.16
2023-04-26T22:25:13.114Z,11.08
2023-04-26T22:27:41.172Z,11.09
2023-04-26T22:30:23.699Z,11.12
2023-04-26T22:32:54.702Z,11.12
2023-04-26T22:35:25.821Z,11.12
2023-04-26T22:37:54.045Z,11.13
2023-04-26T22:40:22.011Z,11.14
2023-04-26T22:42:50.074Z,10.72
2023-04-26T22:45:18.573Z,10.82
2023-04-26T22:47:47.102Z,10.82
2023-04-26T22:50:15.112Z,10.92
2023-04-26T22:52:44.617Z,11.01
2023-04-26T22:55:12.887Z,11.05
2023-04-26T22:57:41.268Z,11.12
2023-04-26T23:00:12.815Z,11.12
2023-04-26T23:02:41.492Z,11.11
2023-04-26T23:05:10.791Z,10.99
2023-04-26T23:07:39.336Z,10.99
2023-04-26T23:10:10.274Z,11.01
2023-04-26T23:12:38.257Z,11.01
2023-04-26T23:15:07.338Z,11.04
2023-04-26T23:17:37.130Z,11.05
2023-04-26T23:20:11.938Z,11.07
2023-04-26T23:22:40.902Z,11.10
2023-04-26T23:25:11.746Z,11.07
2023-04-26T23:27:39.990Z,11.05
2023-04-26T23:30:09.329Z,11.04
2023-04-26T23:32:37.479Z,11.06
2023-04-26T23:35:06.977Z,11.07
2023-04-26T23:37:35.103Z,11.08
2023-04-26T23:40:05.506Z,11.09
2023-04-26T23:42:34.980Z,11.10
2023-04-26T23:45:03.426Z,11.09
2023-04-26T23:47:32.246Z,11.06
2023-04-26T23:50:00.598Z,10.98
2023-04-26T23:52:28.797Z,10.94
2023-04-26T23:54:57.098Z,10.90
2023-04-26T23:57:25.334Z,10.80
2023-04-26T23:59:54.753Z,10.80
